createdAt,value
2017-10-27T00:01:35.403Z,93.00
2017-10-27T00:04:02.798Z,92.80
2017-10-27T00:06:30.227Z,92.56
2017-10-27T00:08:57.632Z,92.43
2017-10-27T00:11:25.050Z,92.81
2017-10-27T00:13:52.438Z,93.12
2017-10-27T00:16:19.859Z,93.10
2017-10-27T00:18:47.254Z,93.42
2017-10-27T00:21:14.642Z,93.12
2017-10-27T00:23:42.042Z,93.04
2017-10-27T00:26:09.430Z,93.12
2017-10-27T00:28:36.830Z,92.93
2017-10-27T00:31:04.265Z,92.43
2017-10-27T00:33:31.658Z,92.37
2017-10-27T00:35:59.062Z,92.94
2017-10-27T00:38:26.479Z,93.06
2017-10-27T00:40:53.898Z,92.70
2017-10-27T00:43:21.302Z,92.92
2017-10-27T00:45:48.717Z,92.75
2017-10-27T00:48:16.110Z,93.20
2017-10-27T00:50:43.515Z,93.11
2017-10-27T00:53:10.934Z,93.55
2017-10-27T00:55:38.361Z,93.39
2017-10-27T00:58:05.741Z,93.17
2017-10-27T01:00:33.170Z,93.06
2017-10-27T01:03:00.554Z,92.85
2017-10-27T01:05:27.959Z,93.21
2017-10-27T01:07:55.362Z,93.26
2017-10-27T01:10:22.750Z,93.52
2017-10-27T01:12:50.150Z,93.62
2017-10-27T01:15:17.574Z,93.13
2017-10-27T01:17:44.974Z,92.74
2017-10-27T01:20:12.381Z,93.21
2017-10-27T01:22:40.077Z,93.31
2017-10-27T01:25:07.500Z,93.20
2017-10-27T01:27:34.884Z,92.60
2017-10-27T01:30:02.297Z,93.29
2017-10-27T01:32:29.686Z,93.41
2017-10-27T01:34:57.091Z,93.61
2017-10-27T01:37:24.535Z,93.84
2017-10-27T01:39:51.938Z,93.48
2017-10-27T01:42:19.324Z,93.25
2017-10-27T01:44:46.734Z,93.18
2017-10-27T01:47:14.222Z,93.70
2017-10-27T01:49:41.610Z,93.63
2017-10-27T01:52:09.026Z,94.04
2017-10-27T01:54:36.434Z,94.31
2017-10-27T01:57:03.858Z,94.17
2017-10-27T01:59:31.273Z,93.78
2017-10-27T02:01:58.685Z,93.49
2017-10-27T02:04:26.070Z,93.63
2017-10-27T02:06:53.481Z,93.99
2017-10-27T02:09:20.879Z,93.88
2017-10-27T02:11:48.266Z,93.60
2017-10-27T02:14:15.661Z,93.44
2017-10-27T02:16:43.086Z,93.48
2017-10-27T02:19:10.506Z,94.00
2017-10-27T02:21:37.921Z,93.92
2017-10-27T02:24:05.386Z,93.78
2017-10-27T02:26:32.781Z,94.24
2017-10-27T02:29:00.186Z,94.29
2017-10-27T02:31:27.593Z,93.76
2017-10-27T02:33:54.987Z,93.43
2017-10-27T02:36:22.398Z,93.72
2017-10-27T02:38:49.814Z,94.11
2017-10-27T02:41:17.210Z,94.15
2017-10-27T02:43:44.618Z,93.65
2017-10-27T02:46:12.048Z,93.71
2017-10-27T02:48:39.448Z,93.69
2017-10-27T02:51:06.874Z,93.64
2017-10-27T02:53:34.310Z,93.28
2017-10-27T02:56:01.724Z,93.93
2017-10-27T02:58:29.141Z,93.53
2017-10-27T03:00:56.581Z,93.63
2017-10-27T03:03:23.976Z,93.88
2017-10-27T03:05:51.386Z,93.73
2017-10-27T03:08:18.787Z,93.22
2017-10-27T03:10:46.177Z,93.34
2017-10-27T03:13:13.606Z,93.81
2017-10-27T03:15:40.990Z,93.83
2017-10-27T03:18:08.443Z,93.84
2017-10-27T03:20:35.838Z,93.56
2017-10-27T03:23:03.239Z,94.13
2017-10-27T03:25:30.642Z,93.91
2017-10-27T03:27:58.053Z,94.46
2017-10-27T03:30:25.478Z,94.12
2017-10-27T03:32:52.890Z,94.55
2017-10-27T03:35:20.310Z,94.58
2017-10-27T03:37:47.718Z,94.34
2017-10-27T03:40:15.109Z,94.28
2017-10-27T03:42:42.553Z,95.11
2017-10-27T03:45:09.970Z,94.87
2017-10-27T03:47:37.366Z,94.33
2017-10-27T03:50:04.796Z,94.19
2017-10-27T03:52:32.194Z,94.11
2017-10-27T03:54:59.618Z,94.67
2017-10-27T03:57:27.036Z,94.11
2017-10-27T03:59:54.430Z,94.26
2017-10-27T04:02:21.827Z,94.88
2017-10-27T04:04:49.229Z,94.97
2017-10-27T04:07:16.632Z,94.50
2017-10-27T04:09:44.030Z,94.31
2017-10-27T04:12:11.438Z,94.40
2017-10-27T04:14:38.838Z,93.96
2017-10-27T04:17:06.295Z,93.70
2017-10-27T04:19:33.711Z,93.78
2017-10-27T04:22:01.106Z,93.65
2017-10-27T04:24:28.503Z,94.01
2017-10-27T04:26:55.930Z,93.11
2017-10-27T04:29:23.332Z,93.39
2017-10-27T04:31:50.758Z,93.90
2017-10-27T04:34:18.172Z,94.19
2017-10-27T04:36:45.580Z,94.49
2017-10-27T04:39:13.022Z,94.20
2017-10-27T04:41:40.461Z,94.41
2017-10-27T04:44:07.840Z,94.42
2017-10-27T04:46:35.266Z,94.10
2017-10-27T04:49:02.677Z,94.18
2017-10-27T04:51:30.079Z,93.79
2017-10-27T04:53:57.479Z,93.39
2017-10-27T04:56:24.916Z,93.58
2017-10-27T04:58:52.294Z,94.20
2017-10-27T05:01:19.686Z,93.80
2017-10-27T05:03:47.146Z,93.90
2017-10-27T05:06:14.550Z,93.26
2017-10-27T05:08:41.945Z,93.39
2017-10-27T05:11:09.382Z,93.66
2017-10-27T05:13:36.787Z,93.02
2017-10-27T05:16:04.178Z,93.35
2017-10-27T05:18:37.111Z,93.54
2017-10-27T05:21:10.179Z,93.54
2017-10-27T05:23:43.094Z,93.77
2017-10-27T05:26:10.498Z,93.67
2017-10-27T05:28:37.902Z,93.67
2017-10-27T05:31:05.334Z,92.94
2017-10-27T05:33:32.765Z,92.97
2017-10-27T05:36:00.179Z,93.21
2017-10-27T05:38:27.638Z,92.57
2017-10-27T05:40:56.616Z,92.98
2017-10-27T05:43:24.074Z,92.82
2017-10-27T05:45:51.489Z,92.46
2017-10-27T05:48:18.909Z,92.40
2017-10-27T05:50:46.362Z,92.56
2017-10-27T05:53:16.042Z,92.95
2017-10-27T05:55:43.418Z,92.74
2017-10-27T05:58:12.222Z,92.19
2017-10-27T06:00:40.654Z,92.79
2017-10-27T06:03:08.030Z,92.14
2017-10-27T06:05:35.474Z,92.21
2017-10-27T06:08:02.915Z,92.55
2017-10-27T06:10:30.344Z,91.97
2017-10-27T06:12:57.723Z,91.26
2017-10-27T06:15:25.131Z,91.77
2017-10-27T06:17:52.551Z,92.59
2017-10-27T06:20:20.049Z,92.45
2017-10-27T06:22:48.180Z,92.24
2017-10-27T06:25:15.601Z,91.93
2017-10-27T06:27:43.069Z,92.31
2017-10-27T06:30:10.613Z,92.36
2017-10-27T06:32:38.089Z,92.20
2017-10-27T06:35:06.048Z,92.38
2017-10-27T06:37:33.541Z,91.62
2017-10-27T06:40:00.952Z,92.02
2017-10-27T06:42:28.470Z,91.62
2017-10-27T06:44:55.868Z,91.39
2017-10-27T06:47:24.154Z,91.59
2017-10-27T06:49:51.561Z,91.78
2017-10-27T06:52:19.018Z,91.86
2017-10-27T06:54:46.426Z,91.66
2017-10-27T06:57:13.859Z,91.70
2017-10-27T06:59:41.301Z,91.33
2017-10-27T07:02:08.681Z,91.58
2017-10-27T07:04:36.089Z,90.82
2017-10-27T07:07:03.552Z,90.86
2017-10-27T07:09:30.947Z,90.90
2017-10-27T07:11:58.332Z,93.25
2017-10-27T07:14:25.763Z,94.08
2017-10-27T07:16:53.146Z,94.48
2017-10-27T07:19:20.547Z,93.95
2017-10-27T07:21:48.072Z,93.37
2017-10-27T07:24:15.469Z,93.09
2017-10-27T07:26:42.930Z,93.25
2017-10-27T07:29:10.318Z,94.01
2017-10-27T07:31:37.734Z,93.76
2017-10-27T07:34:05.122Z,94.61
2017-10-27T07:36:32.630Z,94.34
2017-10-27T07:39:00.118Z,94.02
2017-10-27T07:41:27.522Z,94.13
2017-10-27T07:43:54.944Z,94.25
2017-10-27T07:46:22.342Z,93.94
2017-10-27T07:48:49.758Z,94.49
2017-10-27T07:51:17.238Z,94.32
2017-10-27T07:53:44.638Z,94.28
2017-10-27T07:56:12.035Z,94.31
2017-10-27T07:58:39.452Z,94.11
2017-10-27T08:01:06.886Z,94.57
2017-10-27T08:03:34.284Z,95.00
2017-10-27T08:06:01.687Z,94.08
2017-10-27T08:08:29.131Z,94.10
2017-10-27T08:10:56.587Z,93.42
2017-10-27T08:13:23.991Z,93.43
2017-10-27T08:15:51.378Z,92.95
2017-10-27T08:18:18.775Z,92.29
2017-10-27T08:20:46.225Z,92.18
2017-10-27T08:23:13.628Z,92.13
2017-10-27T08:25:41.021Z,91.93
2017-10-27T08:28:08.432Z,91.52
2017-10-27T08:30:35.826Z,91.69
2017-10-27T08:33:03.278Z,92.29
2017-10-27T08:35:30.690Z,91.51
2017-10-27T08:37:58.073Z,91.47
2017-10-27T08:40:25.514Z,90.64
2017-10-27T08:42:52.957Z,90.94
2017-10-27T08:45:20.390Z,91.41
2017-10-27T08:47:47.798Z,89.17
2017-10-27T08:50:15.216Z,88.81
2017-10-27T08:52:42.609Z,88.61
2017-10-27T08:55:10.662Z,88.71
2017-10-27T08:57:38.058Z,88.54
2017-10-27T09:00:05.552Z,88.76
2017-10-27T09:02:32.953Z,87.34
2017-10-27T09:05:00.418Z,87.26
2017-10-27T09:07:27.819Z,87.24
2017-10-27T09:09:55.211Z,86.52
2017-10-27T09:12:22.607Z,87.66
2017-10-27T09:14:50.010Z,87.14
2017-10-27T09:17:17.421Z,87.36
2017-10-27T09:19:44.833Z,86.99
2017-10-27T09:22:12.206Z,86.32
2017-10-27T09:24:39.602Z,84.45
2017-10-27T09:27:07.021Z,83.08
2017-10-27T09:29:34.429Z,81.06
2017-10-27T09:32:01.856Z,80.90
2017-10-27T09:34:29.258Z,80.54
2017-10-27T09:36:56.659Z,81.68
2017-10-27T09:39:24.758Z,80.79
2017-10-27T09:41:52.161Z,78.70
2017-10-27T09:44:19.582Z,79.37
2017-10-27T09:46:47.014Z,82.07
2017-10-27T09:49:14.434Z,78.64
2017-10-27T09:51:41.826Z,79.50
2017-10-27T09:54:09.218Z,77.78
2017-10-27T09:56:36.631Z,77.68
2017-10-27T09:59:04.014Z,79.47
2017-10-27T10:01:31.402Z,78.97
2017-10-27T10:03:58.824Z,79.41
2017-10-27T10:06:26.244Z,78.83
2017-10-27T10:08:53.651Z,78.04
2017-10-27T10:11:21.046Z,76.29
2017-10-27T10:13:48.460Z,75.21
2017-10-27T10:16:15.881Z,75.33
2017-10-27T10:18:43.264Z,75.74
2017-10-27T10:21:10.671Z,74.07
2017-10-27T10:23:38.063Z,74.19
2017-10-27T10:26:05.459Z,74.52
2017-10-27T10:28:32.933Z,74.85
2017-10-27T10:31:00.336Z,74.52
2017-10-27T10:33:27.750Z,76.16
2017-10-27T10:35:55.145Z,75.00
2017-10-27T10:38:22.522Z,75.12
2017-10-27T10:40:49.932Z,74.71
2017-10-27T10:43:17.362Z,75.12
2017-10-27T10:45:44.754Z,73.11
2017-10-27T10:48:12.159Z,71.72
2017-10-27T10:50:39.532Z,72.61
2017-10-27T10:53:06.930Z,73.21
2017-10-27T10:55:34.357Z,73.47
2017-10-27T10:58:01.748Z,74.58
2017-10-27T11:00:29.162Z,73.23
2017-10-27T11:02:56.569Z,72.31
2017-10-27T11:05:23.954Z,72.18
2017-10-27T11:07:51.830Z,73.33
2017-10-27T11:10:20.194Z,78.73
2017-10-27T11:12:47.597Z,80.22
2017-10-27T11:15:15.006Z,82.35
2017-10-27T11:17:42.410Z,82.22
2017-10-27T11:20:09.795Z,83.64
2017-10-27T11:22:37.201Z,83.96
2017-10-27T11:25:04.607Z,82.81
2017-10-27T11:27:32.007Z,83.73
2017-10-27T11:29:59.396Z,80.07
2017-10-27T11:32:26.796Z,80.27
2017-10-27T11:34:54.187Z,78.75
2017-10-27T11:37:21.575Z,78.48
2017-10-27T11:39:49.249Z,78.58
2017-10-27T11:42:17.242Z,77.55
2017-10-27T11:44:44.678Z,78.31
2017-10-27T11:47:12.159Z,79.56
2017-10-27T11:49:39.535Z,77.96
2017-10-27T11:52:07.523Z,77.09
2017-10-27T11:54:34.932Z,77.20
2017-10-27T11:57:02.342Z,75.27
2017-10-27T11:59:29.774Z,74.49
2017-10-27T12:01:57.213Z,75.56
2017-10-27T12:04:26.418Z,74.36
2017-10-27T12:06:53.855Z,75.90
2017-10-27T12:09:21.242Z,74.65
2017-10-27T12:11:48.642Z,77.83
2017-10-27T12:14:16.076Z,82.19
2017-10-27T12:16:43.463Z,84.41
2017-10-27T12:19:10.867Z,87.15
2017-10-27T12:21:44.237Z,88.29
2017-10-27T12:24:12.442Z,88.52
2017-10-27T12:26:39.834Z,88.82
2017-10-27T12:29:07.245Z,89.05
2017-10-27T12:31:34.887Z,87.21
2017-10-27T12:34:02.254Z,88.40
2017-10-27T12:36:29.720Z,87.78
2017-10-27T12:38:57.155Z,89.08
2017-10-27T12:41:25.599Z,87.23
2017-10-27T12:43:53.101Z,86.27
2017-10-27T12:46:22.275Z,86.73
2017-10-27T12:48:50.233Z,86.82
2017-10-27T12:51:18.526Z,85.12
2017-10-27T12:53:45.909Z,86.56
2017-10-27T12:56:13.295Z,85.94
2017-10-27T12:58:40.714Z,87.16
2017-10-27T13:01:08.106Z,85.62
2017-10-27T13:03:35.487Z,85.34
2017-10-27T13:06:02.899Z,81.66
2017-10-27T13:08:30.285Z,81.64
2017-10-27T13:10:57.670Z,81.44
2017-10-27T13:13:25.178Z,79.20
2017-10-27T13:15:52.567Z,75.87
2017-10-27T13:18:19.967Z,78.17
2017-10-27T13:20:47.362Z,77.36
2017-10-27T13:23:14.746Z,74.50
2017-10-27T13:25:42.130Z,75.45
2017-10-27T13:28:20.439Z,74.26
2017-10-27T13:30:47.825Z,74.94
2017-10-27T13:33:15.211Z,74.08
2017-10-27T13:35:42.624Z,74.28
2017-10-27T13:38:10.010Z,75.51
2017-10-27T13:40:37.398Z,73.05
2017-10-27T13:43:04.806Z,74.88
2017-10-27T13:45:32.194Z,72.34
2017-10-27T13:47:59.861Z,72.97
2017-10-27T13:50:27.279Z,70.61
2017-10-27T13:52:54.723Z,72.88
2017-10-27T13:55:22.118Z,72.34
2017-10-27T13:57:49.567Z,74.44
2017-10-27T14:00:17.958Z,72.17
2017-10-27T14:02:45.409Z,72.29
2017-10-27T14:05:13.734Z,71.82
2017-10-27T14:07:41.126Z,69.08
2017-10-27T14:10:08.534Z,69.88
2017-10-27T14:12:37.236Z,67.07
2017-10-27T14:15:04.611Z,67.38
2017-10-27T14:17:32.708Z,68.65
2017-10-27T14:20:00.119Z,69.17
2017-10-27T14:22:27.502Z,68.45
2017-10-27T14:24:54.882Z,69.67
2017-10-27T14:27:22.398Z,68.85
2017-10-27T14:29:49.770Z,69.01
2017-10-27T14:32:17.183Z,68.85
2017-10-27T14:34:44.610Z,69.61
2017-10-27T14:37:11.982Z,69.87
2017-10-27T14:39:39.366Z,69.17
2017-10-27T14:42:06.875Z,69.94
2017-10-27T14:44:34.254Z,67.92
2017-10-27T14:47:01.648Z,70.09
2017-10-27T14:49:29.046Z,70.37
2017-10-27T14:51:56.437Z,70.54
2017-10-27T14:54:23.813Z,71.45
2017-10-27T14:56:51.233Z,71.23
2017-10-27T14:59:18.630Z,71.49
2017-10-27T15:01:46.010Z,73.93
2017-10-27T15:04:13.508Z,74.46
2017-10-27T15:06:40.942Z,76.55
2017-10-27T15:09:08.333Z,77.15
2017-10-27T15:11:35.802Z,76.51
2017-10-27T15:14:03.192Z,77.91
2017-10-27T15:16:30.574Z,77.92
2017-10-27T15:18:57.983Z,77.08
2017-10-27T15:21:25.377Z,76.59
2017-10-27T15:23:52.766Z,76.92
2017-10-27T15:26:20.181Z,76.53
2017-10-27T15:28:47.561Z,76.05
2017-10-27T15:31:14.946Z,76.01
2017-10-27T15:33:42.365Z,75.46
2017-10-27T15:36:09.750Z,75.45
2017-10-27T15:38:37.133Z,75.11
2017-10-27T15:41:04.531Z,74.66
2017-10-27T15:43:31.926Z,74.01
2017-10-27T15:46:00.110Z,74.89
2017-10-27T15:48:27.553Z,74.67
2017-10-27T15:50:54.947Z,73.63
2017-10-27T15:53:22.347Z,74.23
2017-10-27T15:55:49.736Z,73.64
2017-10-27T15:58:17.210Z,74.66
2017-10-27T16:00:44.615Z,74.18
2017-10-27T16:03:12.126Z,73.54
2017-10-27T16:05:39.514Z,74.86
2017-10-27T16:08:06.914Z,74.72
2017-10-27T16:10:34.429Z,74.55
2017-10-27T16:13:01.815Z,74.02
2017-10-27T16:15:29.218Z,74.52
2017-10-27T16:17:56.758Z,75.02
2017-10-27T16:20:24.160Z,74.65
2017-10-27T16:22:51.543Z,74.90
2017-10-27T16:25:18.951Z,74.86
2017-10-27T16:27:46.357Z,75.46
2017-10-27T16:30:13.764Z,75.44
2017-10-27T16:32:41.185Z,76.32
2017-10-27T16:35:08.585Z,75.97
2017-10-27T16:37:36.019Z,77.03
2017-10-27T16:40:03.570Z,77.38
2017-10-27T16:42:30.967Z,77.55
2017-10-27T16:44:58.400Z,77.74
2017-10-27T16:47:25.831Z,77.87
2017-10-27T16:49:53.279Z,78.71
2017-10-27T16:52:20.688Z,79.40
2017-10-27T16:54:49.150Z,79.63
2017-10-27T16:57:16.982Z,80.10
2017-10-27T16:59:44.370Z,80.41
2017-10-27T17:02:12.598Z,80.58
2017-10-27T17:04:39.980Z,80.69
2017-10-27T17:07:08.603Z,80.95
2017-10-27T17:09:36.226Z,81.39
2017-10-27T17:12:03.599Z,81.74
2017-10-27T17:14:30.990Z,81.80
2017-10-27T17:16:58.526Z,82.03
2017-10-27T17:19:25.931Z,82.20
2017-10-27T17:21:53.330Z,82.18
2017-10-27T17:24:20.861Z,82.29
2017-10-27T17:26:48.242Z,82.46
2017-10-27T17:29:15.635Z,82.48
2017-10-27T17:31:43.156Z,82.46
2017-10-27T17:34:10.574Z,81.99
2017-10-27T17:36:37.966Z,81.77
2017-10-27T17:39:05.369Z,81.49
2017-10-27T17:41:32.795Z,81.56
2017-10-27T17:44:00.173Z,81.99
2017-10-27T17:46:27.679Z,82.13
2017-10-27T17:48:55.091Z,82.20
2017-10-27T17:51:22.486Z,81.97
2017-10-27T17:53:50.914Z,82.01
2017-10-27T17:56:18.313Z,82.40
2017-10-27T17:58:45.702Z,82.52
2017-10-27T18:01:13.887Z,82.55
2017-10-27T18:03:41.294Z,82.06
2017-10-27T18:06:08.696Z,81.65
2017-10-27T18:08:36.739Z,81.92
2017-10-27T18:11:04.202Z,81.69
2017-10-27T18:13:31.594Z,81.71
2017-10-27T18:15:59.805Z,81.78
2017-10-27T18:18:27.198Z,82.24
2017-10-27T18:20:54.602Z,82.65
2017-10-27T18:23:22.070Z,83.06
2017-10-27T18:25:49.502Z,83.55
2017-10-27T18:28:16.894Z,83.44
2017-10-27T18:30:44.314Z,83.81
2017-10-27T18:33:11.702Z,83.94
2017-10-27T18:35:39.115Z,84.53
2017-10-27T18:38:06.722Z,85.04
2017-10-27T18:40:34.115Z,85.33
2017-10-27T18:43:01.525Z,84.74
2017-10-27T18:45:29.033Z,84.77
2017-10-27T18:47:56.430Z,84.61
2017-10-27T18:50:23.904Z,84.37
2017-10-27T18:52:51.334Z,84.49
2017-10-27T18:55:18.721Z,84.26
2017-10-27T18:57:49.815Z,84.22
2017-10-27T19:00:17.314Z,84.50
2017-10-27T19:02:44.699Z,83.67
2017-10-27T19:05:12.114Z,83.87
2017-10-27T19:07:39.627Z,83.28
2017-10-27T19:10:07.021Z,83.15
2017-10-27T19:12:34.420Z,83.19
2017-10-27T19:15:01.924Z,83.24
2017-10-27T19:17:29.317Z,83.55
2017-10-27T19:19:56.709Z,83.42
2017-10-27T19:22:24.127Z,83.24
2017-10-27T19:24:51.515Z,83.61
2017-10-27T19:27:18.926Z,83.51
2017-10-27T19:29:46.426Z,83.21
2017-10-27T19:32:13.828Z,83.36
2017-10-27T19:34:41.221Z,83.27
2017-10-27T19:37:08.645Z,83.11
2017-10-27T19:39:36.452Z,82.96
2017-10-27T19:42:03.829Z,82.66
2017-10-27T19:44:31.234Z,82.34
2017-10-27T19:46:58.627Z,82.15
2017-10-27T19:49:26.018Z,81.46
2017-10-27T19:51:53.530Z,81.49
2017-10-27T19:54:20.978Z,80.74
2017-10-27T19:56:48.369Z,80.70
2017-10-27T19:59:15.787Z,80.82
2017-10-27T20:01:43.195Z,81.22
2017-10-27T20:04:10.593Z,80.50
2017-10-27T20:06:38.087Z,80.09
2017-10-27T20:09:05.486Z,80.47
2017-10-27T20:11:32.873Z,80.68
2017-10-27T20:14:00.283Z,79.94
2017-10-27T20:16:27.694Z,80.15
2017-10-27T20:18:55.083Z,79.95
2017-10-27T20:21:22.483Z,80.29
2017-10-27T20:23:49.882Z,80.12
2017-10-27T20:26:17.274Z,80.10
2017-10-27T20:28:44.692Z,80.13
2017-10-27T20:31:12.078Z,80.36
2017-10-27T20:33:39.465Z,80.38
2017-10-27T20:36:06.880Z,80.71
2017-10-27T20:38:34.257Z,80.79
2017-10-27T20:41:01.653Z,80.86
2017-10-27T20:43:29.054Z,80.72
2017-10-27T20:45:56.437Z,81.02
2017-10-27T20:48:23.822Z,81.17
2017-10-27T20:50:51.326Z,81.01
2017-10-27T20:53:18.723Z,80.62
2017-10-27T20:55:46.686Z,81.05
2017-10-27T20:58:14.107Z,80.96
2017-10-27T21:00:41.509Z,81.17
2017-10-27T21:03:08.893Z,81.46
2017-10-27T21:05:36.305Z,81.99
2017-10-27T21:08:03.697Z,82.24
2017-10-27T21:10:31.094Z,82.01
2017-10-27T21:12:58.522Z,82.07
2017-10-27T21:15:25.969Z,81.86
2017-10-27T21:17:54.162Z,81.80
2017-10-27T21:20:21.570Z,81.42
2017-10-27T21:22:48.954Z,80.89
2017-10-27T21:25:16.350Z,81.14
2017-10-27T21:27:43.770Z,80.87
2017-10-27T21:30:11.170Z,80.95
2017-10-27T21:32:38.555Z,81.16
2017-10-27T21:35:06.052Z,81.01
2017-10-27T21:37:33.437Z,80.98
2017-10-27T21:40:00.835Z,81.07
2017-10-27T21:42:28.342Z,81.08
2017-10-27T21:44:55.733Z,80.69
2017-10-27T21:47:23.134Z,80.94
2017-10-27T21:49:50.536Z,80.85
2017-10-27T21:52:17.930Z,81.28
2017-10-27T21:54:45.333Z,81.72
2017-10-27T21:57:12.753Z,81.71
2017-10-27T21:59:40.146Z,81.96
2017-10-27T22:02:07.539Z,81.92
2017-10-27T22:04:34.953Z,81.97
2017-10-27T22:07:02.348Z,82.45
2017-10-27T22:09:29.742Z,82.45
2017-10-27T22:11:57.151Z,82.55
2017-10-27T22:14:24.546Z,82.82
2017-10-27T22:16:51.957Z,82.82
2017-10-27T22:19:19.390Z,82.76
2017-10-27T22:21:46.790Z,82.85
2017-10-27T22:24:14.193Z,83.05
2017-10-27T22:26:41.709Z,83.49
2017-10-27T22:29:09.127Z,83.75
2017-10-27T22:31:36.519Z,83.84
2017-10-27T22:34:03.927Z,83.52
2017-10-27T22:36:31.330Z,83.55
2017-10-27T22:38:58.722Z,83.86
2017-10-27T22:41:26.174Z,84.02
2017-10-27T22:43:53.599Z,83.52
2017-10-27T22:46:20.987Z,83.94
2017-10-27T22:48:48.404Z,83.80
2017-10-27T22:51:15.805Z,83.94
2017-10-27T22:53:43.197Z,84.19
2017-10-27T22:56:10.703Z,84.47
2017-10-27T22:58:38.087Z,84.36
2017-10-27T23:01:05.482Z,84.52
2017-10-27T23:03:32.903Z,84.17
2017-10-27T23:06:00.298Z,84.18
2017-10-27T23:08:27.706Z,84.45
2017-10-27T23:10:55.202Z,84.32
2017-10-27T23:13:22.594Z,83.87
2017-10-27T23:15:49.986Z,84.24
2017-10-27T23:18:17.469Z,84.33
2017-10-27T23:20:44.860Z,83.61
2017-10-27T23:23:12.250Z,83.83
2017-10-27T23:25:39.655Z,84.25
2017-10-27T23:28:07.049Z,83.62
2017-10-27T23:30:34.456Z,83.44
2017-10-27T23:33:01.977Z,83.35
2017-10-27T23:35:29.373Z,83.60
2017-10-27T23:37:56.764Z,83.63
2017-10-27T23:40:24.289Z,84.03
2017-10-27T23:42:51.678Z,83.57
2017-10-27T23:45:19.078Z,83.84
2017-10-27T23:47:46.502Z,83.74
2017-10-27T23:50:13.890Z,83.89
2017-10-27T23:52:41.293Z,84.48
2017-10-27T23:55:08.722Z,84.78
2017-10-27T23:57:36.114Z,84.72
